createdAt,value
2018-11-04T00:00:20.394Z,86.87
2018-11-04T00:02:51.859Z,86.77
2018-11-04T00:05:23.142Z,86.75
2018-11-04T00:07:54.116Z,86.90
2018-11-04T00:10:24.970Z,86.92
2018-11-04T00:12:55.973Z,86.70
2018-11-04T00:15:26.925Z,86.86
2018-11-04T00:17:57.879Z,86.91
2018-11-04T00:20:29.053Z,86.80
2018-11-04T00:22:59.998Z,86.76
2018-11-04T00:25:31.020Z,86.90
2018-11-04T00:28:01.978Z,86.76
2018-11-04T00:30:33.108Z,86.64
2018-11-04T00:33:04.161Z,86.14
2018-11-04T00:35:35.039Z,86.48
2018-11-04T00:38:06.052Z,86.54
2018-11-04T00:40:37.320Z,86.49
2018-11-04T00:43:08.384Z,86.74
2018-11-04T00:45:39.357Z,86.52
2018-11-04T00:48:10.383Z,86.36
2018-11-04T00:50:41.249Z,86.45
2018-11-04T00:53:12.613Z,86.24
2018-11-04T00:56:08.428Z,86.54
2018-11-04T00:58:39.924Z,86.46
2018-11-04T01:01:10.788Z,86.60
2018-11-04T01:03:42.432Z,86.23
2018-11-04T01:06:13.710Z,86.34
2018-11-04T01:08:44.664Z,86.58
2018-11-04T01:11:15.621Z,86.48
2018-11-04T01:13:46.521Z,86.71
2018-11-04T01:16:17.503Z,86.85
2018-11-04T01:18:48.409Z,86.67
2018-11-04T01:21:19.356Z,86.74
2018-11-04T01:23:50.366Z,87.11
2018-11-04T01:26:21.253Z,87.31
2018-11-04T01:28:52.274Z,87.25
2018-11-04T01:31:23.296Z,86.95
2018-11-04T01:33:54.197Z,87.06
2018-11-04T01:36:25.080Z,87.05
2018-11-04T01:38:56.412Z,87.25
2018-11-04T01:41:27.410Z,87.18
2018-11-04T01:43:58.773Z,87.14
2018-11-04T01:46:30.274Z,87.22
2018-11-04T01:49:01.197Z,87.23
2018-11-04T01:51:32.151Z,87.14
2018-11-04T01:54:03.002Z,87.16
2018-11-04T01:56:34.000Z,87.28
2018-11-04T01:59:05.192Z,87.25
2018-11-04T02:01:36.394Z,87.12
2018-11-04T02:04:07.706Z,87.07
2018-11-04T02:06:38.826Z,86.94
2018-11-04T02:09:11.786Z,86.96
2018-11-04T02:11:42.744Z,86.96
2018-11-04T02:14:13.730Z,87.05
2018-11-04T02:16:44.701Z,86.92
2018-11-04T02:19:15.624Z,86.65
2018-11-04T02:21:46.537Z,86.87
2018-11-04T02:24:17.791Z,86.63
2018-11-04T02:26:49.061Z,86.81
2018-11-04T02:29:19.922Z,86.61
2018-11-04T02:31:50.839Z,86.72
2018-11-04T02:34:22.225Z,86.75
2018-11-04T02:36:53.249Z,86.64
2018-11-04T02:39:24.476Z,87.04
2018-11-04T02:41:55.538Z,86.48
2018-11-04T02:44:26.443Z,86.32
2018-11-04T02:46:57.408Z,86.54
2018-11-04T02:49:28.372Z,86.31
2018-11-04T02:51:59.401Z,86.11
2018-11-04T02:54:30.352Z,85.94
2018-11-04T02:57:01.330Z,86.09
2018-11-04T02:59:32.339Z,86.38
2018-11-04T03:02:03.360Z,85.97
2018-11-04T03:04:34.655Z,86.14
2018-11-04T03:07:05.903Z,86.01
2018-11-04T03:09:36.822Z,85.99
2018-11-04T03:12:07.983Z,86.02
2018-11-04T03:14:39.367Z,86.14
2018-11-04T03:17:10.333Z,85.95
2018-11-04T03:19:41.631Z,85.96
2018-11-04T03:22:12.919Z,85.64
2018-11-04T03:24:44.635Z,85.73
2018-11-04T03:27:15.513Z,85.47
2018-11-04T03:29:46.675Z,85.76
2018-11-04T03:32:18.011Z,86.00
2018-11-04T03:34:48.915Z,85.99
2018-11-04T03:37:19.861Z,86.03
2018-11-04T03:39:50.748Z,86.16
2018-11-04T03:42:21.721Z,85.92
2018-11-04T03:44:52.665Z,85.82
2018-11-04T03:47:23.905Z,85.72
2018-11-04T03:49:54.861Z,85.74
2018-11-04T03:52:26.151Z,85.90
2018-11-04T03:54:57.466Z,85.95
2018-11-04T03:57:29.354Z,86.14
2018-11-04T04:00:00.363Z,86.00
2018-11-04T04:02:31.273Z,86.26
2018-11-04T04:05:02.569Z,86.24
2018-11-04T04:07:34.177Z,86.69
2018-11-04T04:10:05.951Z,86.61
2018-11-04T04:12:37.807Z,86.64
2018-11-04T04:15:10.921Z,86.63
2018-11-04T04:17:42.167Z,86.43
2018-11-04T04:20:13.320Z,86.52
2018-11-04T04:22:44.516Z,86.61
2018-11-04T04:25:15.964Z,86.79
2018-11-04T04:27:46.897Z,86.69
2018-11-04T04:30:18.172Z,86.87
2018-11-04T04:32:49.103Z,86.77
2018-11-04T04:35:19.945Z,86.95
2018-11-04T04:37:50.857Z,86.91
2018-11-04T04:40:22.475Z,87.04
2018-11-04T04:42:53.473Z,87.03
2018-11-04T04:45:24.961Z,87.02
2018-11-04T04:47:55.903Z,86.81
2018-11-04T04:50:27.195Z,87.10
2018-11-04T04:52:58.745Z,86.74
2018-11-04T04:55:30.117Z,86.86
2018-11-04T04:58:01.077Z,86.71
2018-11-04T05:00:31.920Z,87.09
2018-11-04T05:03:03.098Z,87.14
2018-11-04T05:05:34.299Z,87.11
2018-11-04T05:08:05.299Z,86.84
2018-11-04T05:10:36.491Z,87.05
2018-11-04T05:13:07.583Z,87.08
2018-11-04T05:15:39.261Z,87.02
2018-11-04T05:18:10.988Z,86.91
2018-11-04T05:20:42.159Z,86.72
2018-11-04T05:23:13.427Z,86.91
2018-11-04T05:25:45.011Z,87.04
2018-11-04T05:28:15.998Z,87.19
2018-11-04T05:30:47.132Z,87.04
2018-11-04T05:33:18.820Z,87.30
2018-11-04T05:35:49.698Z,87.32
2018-11-04T05:38:20.677Z,87.10
2018-11-04T05:40:51.819Z,86.80
2018-11-04T05:43:22.737Z,86.49
2018-11-04T05:45:54.247Z,86.83
2018-11-04T05:48:25.317Z,87.11
2018-11-04T05:50:56.475Z,87.02
2018-11-04T05:53:27.660Z,87.11
2018-11-04T05:55:58.619Z,86.99
2018-11-04T05:58:30.020Z,86.97
2018-11-04T06:01:01.041Z,87.03
2018-11-04T06:03:31.900Z,87.17
2018-11-04T06:06:02.736Z,87.25
2018-11-04T06:08:33.692Z,87.21
2018-11-04T06:11:04.619Z,87.19
2018-11-04T06:13:36.018Z,87.03
2018-11-04T06:16:07.635Z,87.21
2018-11-04T06:18:38.511Z,87.50
2018-11-04T06:21:09.405Z,87.53
2018-11-04T06:23:40.283Z,87.37
2018-11-04T06:26:11.137Z,87.65
2018-11-04T06:28:42.036Z,87.71
2018-11-04T06:31:13.122Z,87.76
2018-11-04T06:33:44.474Z,87.69
2018-11-04T06:36:15.590Z,87.81
2018-11-04T06:38:46.541Z,87.58
2018-11-04T06:41:17.705Z,87.72
2018-11-04T06:43:48.538Z,87.42
2018-11-04T06:46:19.962Z,87.84
2018-11-04T06:48:51.118Z,87.78
2018-11-04T06:51:22.143Z,87.68
2018-11-04T06:53:53.352Z,87.86
2018-11-04T06:56:24.827Z,88.02
2018-11-04T06:58:55.755Z,87.84
2018-11-04T07:01:27.121Z,87.84
2018-11-04T07:04:26.312Z,88.08
2018-11-04T07:06:57.262Z,88.10
2018-11-04T07:09:28.408Z,88.18
2018-11-04T07:11:59.552Z,87.70
2018-11-04T07:14:30.435Z,87.63
2018-11-04T07:17:04.530Z,87.81
2018-11-04T07:19:35.399Z,87.76
2018-11-04T07:22:06.732Z,87.73
2018-11-04T07:24:37.701Z,88.00
2018-11-04T07:27:08.983Z,87.88
2018-11-04T07:29:40.106Z,87.82
2018-11-04T07:32:10.968Z,87.78
2018-11-04T07:34:41.836Z,87.76
2018-11-04T07:37:12.774Z,87.46
2018-11-04T07:39:43.996Z,87.45
2018-11-04T07:42:15.248Z,87.25
2018-11-04T07:44:46.131Z,87.22
2018-11-04T07:47:17.253Z,87.18
2018-11-04T07:49:48.348Z,87.58
2018-11-04T07:52:19.711Z,87.06
2018-11-04T07:54:50.955Z,87.17
2018-11-04T07:57:21.878Z,86.90
2018-11-04T07:59:52.825Z,87.00
2018-11-04T08:02:23.913Z,87.02
2018-11-04T08:04:54.776Z,86.88
2018-11-04T08:07:25.888Z,86.63
2018-11-04T08:09:57.021Z,86.61
2018-11-04T08:12:28.126Z,86.62
2018-11-04T08:14:59.772Z,86.42
2018-11-04T08:17:30.623Z,86.49
2018-11-04T08:20:01.512Z,86.22
2018-11-04T08:22:32.822Z,86.32
2018-11-04T08:25:04.188Z,85.23
2018-11-04T08:27:35.333Z,85.55
2018-11-04T08:30:07.597Z,85.83
2018-11-04T08:32:39.694Z,85.24
2018-11-04T08:35:10.587Z,85.40
2018-11-04T08:37:41.425Z,85.38
2018-11-04T08:40:12.342Z,85.21
2018-11-04T08:42:43.146Z,85.47
2018-11-04T08:45:14.320Z,85.46
2018-11-04T08:47:45.567Z,85.15
2018-11-04T08:50:16.802Z,84.89
2018-11-04T08:52:47.818Z,85.43
2018-11-04T08:55:18.749Z,85.21
2018-11-04T08:57:49.926Z,85.31
2018-11-04T09:00:20.781Z,85.00
2018-11-04T09:02:51.834Z,84.65
2018-11-04T09:05:22.713Z,85.28
2018-11-04T09:07:53.543Z,85.56
2018-11-04T09:10:24.394Z,85.51
2018-11-04T09:12:55.266Z,84.99
2018-11-04T09:15:26.119Z,84.37
2018-11-04T09:17:56.969Z,84.34
2018-11-04T09:20:27.852Z,84.88
2018-11-04T09:22:58.702Z,85.12
2018-11-04T09:25:29.564Z,84.94
2018-11-04T09:28:00.498Z,85.04
2018-11-04T09:30:31.944Z,85.09
2018-11-04T09:33:03.074Z,84.58
2018-11-04T09:35:34.573Z,84.63
2018-11-04T09:38:05.542Z,84.45
2018-11-04T09:40:37.088Z,84.49
2018-11-04T09:43:08.100Z,84.48
2018-11-04T09:45:38.947Z,85.08
2018-11-04T09:48:10.054Z,84.26
2018-11-04T09:50:41.153Z,84.50
2018-11-04T09:53:12.291Z,84.57
2018-11-04T09:55:43.577Z,84.18
2018-11-04T09:58:14.432Z,84.32
2018-11-04T10:00:45.309Z,84.05
2018-11-04T10:03:16.478Z,84.04
2018-11-04T10:05:47.342Z,84.58
2018-11-04T10:08:18.755Z,83.92
2018-11-04T10:10:49.868Z,83.87
2018-11-04T10:13:20.877Z,83.77
2018-11-04T10:15:51.706Z,83.47
2018-11-04T10:18:22.545Z,83.24
2018-11-04T10:20:54.089Z,83.21
2018-11-04T10:23:24.665Z,83.16
2018-11-04T10:25:55.685Z,83.47
2018-11-04T10:28:26.579Z,83.73
2018-11-04T10:30:57.787Z,83.65
2018-11-04T10:33:28.665Z,83.45
2018-11-04T10:35:59.513Z,83.77
2018-11-04T10:38:30.422Z,83.37
2018-11-04T10:41:01.277Z,83.63
2018-11-04T10:43:32.395Z,83.67
2018-11-04T10:46:03.265Z,83.62
2018-11-04T10:48:34.236Z,83.90
2018-11-04T10:51:05.307Z,84.21
2018-11-04T10:53:37.030Z,84.43
2018-11-04T10:56:08.868Z,84.48
2018-11-04T10:58:39.760Z,83.92
2018-11-04T11:01:11.786Z,84.05
2018-11-04T11:03:43.103Z,84.13
2018-11-04T11:06:14.278Z,84.08
2018-11-04T11:08:45.217Z,84.29
2018-11-04T11:11:16.290Z,84.26
2018-11-04T11:13:47.505Z,84.18
2018-11-04T11:16:18.599Z,84.33
2018-11-04T11:18:49.508Z,84.37
2018-11-04T11:21:20.433Z,84.47
2018-11-04T11:23:51.283Z,84.73
2018-11-04T11:26:22.386Z,84.60
2018-11-04T11:28:53.535Z,84.25
2018-11-04T11:31:24.621Z,83.00
2018-11-04T11:33:55.502Z,83.22
2018-11-04T11:36:26.356Z,83.05
2018-11-04T11:38:57.457Z,83.37
2018-11-04T11:41:28.357Z,83.25
2018-11-04T11:43:59.463Z,82.74
2018-11-04T11:46:30.335Z,82.95
2018-11-04T11:49:01.307Z,82.99
2018-11-04T11:51:32.219Z,83.03
2018-11-04T11:54:03.366Z,82.60
2018-11-04T11:56:34.427Z,82.70
2018-11-04T11:59:05.365Z,82.65
2018-11-04T12:01:36.482Z,81.97
2018-11-04T12:04:07.457Z,82.99
2018-11-04T12:06:38.285Z,82.77
2018-11-04T12:09:09.971Z,82.45
2018-11-04T12:11:40.874Z,82.47
2018-11-04T12:14:11.740Z,82.86
2018-11-04T12:16:42.842Z,82.28
2018-11-04T12:19:13.719Z,82.42
2018-11-04T12:21:44.599Z,82.36
2018-11-04T12:24:15.658Z,82.36
2018-11-04T12:26:46.492Z,82.29
2018-11-04T12:29:17.337Z,82.18
2018-11-04T12:31:48.165Z,82.66
2018-11-04T12:34:19.009Z,82.65
2018-11-04T12:36:50.151Z,82.78
2018-11-04T12:39:21.073Z,82.12
2018-11-04T12:41:52.262Z,81.74
2018-11-04T12:44:23.488Z,81.92
2018-11-04T12:46:54.621Z,81.67
2018-11-04T12:49:25.568Z,81.01
2018-11-04T12:51:56.731Z,80.95
2018-11-04T12:54:28.075Z,81.06
2018-11-04T12:56:59.251Z,81.30
2018-11-04T12:59:30.347Z,81.21
2018-11-04T13:02:01.473Z,81.65
2018-11-04T13:04:33.579Z,81.18
2018-11-04T13:07:04.873Z,81.31
2018-11-04T13:09:35.703Z,82.20
2018-11-04T13:12:06.599Z,81.73
2018-11-04T13:14:37.750Z,81.88
2018-11-04T13:17:08.804Z,81.83
2018-11-04T13:19:39.964Z,81.74
2018-11-04T13:22:11.423Z,82.01
2018-11-04T13:24:42.291Z,82.37
2018-11-04T13:27:13.272Z,82.34
2018-11-04T13:29:44.509Z,82.80
2018-11-04T13:32:15.746Z,82.97
2018-11-04T13:34:46.878Z,83.08
2018-11-04T13:37:17.797Z,83.05
2018-11-04T13:39:49.169Z,82.81
2018-11-04T13:42:20.232Z,82.99
2018-11-04T13:44:51.480Z,83.26
2018-11-04T13:47:22.604Z,82.57
2018-11-04T13:49:53.537Z,82.85
2018-11-04T13:52:24.343Z,82.48
2018-11-04T13:54:55.479Z,82.89
2018-11-04T13:57:26.590Z,82.86
2018-11-04T13:59:57.460Z,82.84
2018-11-04T14:02:28.553Z,82.69
2018-11-04T14:04:59.493Z,82.88
2018-11-04T14:07:30.537Z,82.99
2018-11-04T14:10:01.378Z,82.76
2018-11-04T14:12:32.248Z,83.17
2018-11-04T14:15:03.068Z,82.76
2018-11-04T14:17:33.969Z,82.63
2018-11-04T14:20:04.833Z,82.78
2018-11-04T14:22:36.461Z,83.05
2018-11-04T14:25:08.324Z,83.07
2018-11-04T14:27:39.366Z,83.30
2018-11-04T14:30:13.202Z,83.42
2018-11-04T14:32:44.396Z,83.58
2018-11-04T14:35:15.500Z,83.48
2018-11-04T14:37:47.139Z,83.23
2018-11-04T14:40:17.992Z,83.32
2018-11-04T14:42:48.845Z,83.56
2018-11-04T14:45:20.016Z,83.38
2018-11-04T14:47:50.860Z,83.38
2018-11-04T14:50:22.020Z,83.07
2018-11-04T14:52:52.956Z,82.91
2018-11-04T14:55:24.052Z,82.85
2018-11-04T14:57:55.423Z,82.63
2018-11-04T15:00:26.681Z,82.86
2018-11-04T15:02:57.599Z,82.90
2018-11-04T15:05:28.780Z,82.73
2018-11-04T15:07:59.617Z,82.37
2018-11-04T15:10:30.480Z,82.64
2018-11-04T15:13:01.419Z,82.73
2018-11-04T15:15:32.562Z,83.09
2018-11-04T15:18:03.440Z,83.08
2018-11-04T15:20:34.891Z,83.13
2018-11-04T15:23:05.813Z,83.64
2018-11-04T15:25:36.668Z,83.33
2018-11-04T15:28:07.899Z,83.32
2018-11-04T15:30:39.021Z,83.03
2018-11-04T15:33:09.903Z,83.56
2018-11-04T15:35:41.170Z,83.84
2018-11-04T15:38:12.844Z,83.43
2018-11-04T15:40:43.849Z,83.38
2018-11-04T15:43:14.523Z,83.42
2018-11-04T15:45:45.447Z,83.51
2018-11-04T15:48:16.536Z,83.25
2018-11-04T15:50:48.131Z,83.39
2018-11-04T15:53:19.299Z,83.79
2018-11-04T15:55:50.494Z,83.92
2018-11-04T15:58:22.029Z,83.97
2018-11-04T16:00:52.862Z,83.56
2018-11-04T16:03:23.739Z,83.12
2018-11-04T16:05:55.248Z,82.97
2018-11-04T16:08:26.311Z,83.00
2018-11-04T16:10:57.540Z,83.34
2018-11-04T16:13:28.694Z,83.46
2018-11-04T16:16:00.213Z,83.90
2018-11-04T16:18:31.624Z,83.60
2018-11-04T16:21:02.801Z,83.88
2018-11-04T16:23:33.663Z,84.14
2018-11-04T16:26:04.576Z,84.16
2018-11-04T16:28:35.519Z,84.02
2018-11-04T16:31:06.375Z,84.02
2018-11-04T16:33:37.242Z,84.15
2018-11-04T16:36:08.162Z,84.07
2018-11-04T16:38:39.019Z,83.79
2018-11-04T16:41:10.315Z,83.91
2018-11-04T16:43:41.564Z,83.70
2018-11-04T16:46:12.352Z,83.94
2018-11-04T16:48:43.203Z,84.11
2018-11-04T16:51:14.208Z,84.04
2018-11-04T16:53:45.726Z,83.87
2018-11-04T16:56:16.731Z,84.08
2018-11-04T16:58:47.962Z,83.79
2018-11-04T17:01:19.203Z,84.23
2018-11-04T17:03:50.138Z,84.39
2018-11-04T17:06:20.968Z,84.27
2018-11-04T17:08:52.468Z,84.28
2018-11-04T17:11:24.189Z,84.52
2018-11-04T17:13:55.656Z,84.17
2018-11-04T17:16:26.830Z,84.21
2018-11-04T17:18:57.727Z,84.17
2018-11-04T17:21:28.825Z,84.55
2018-11-04T17:23:59.943Z,84.48
2018-11-04T17:26:30.796Z,84.63
2018-11-04T17:29:02.070Z,84.42
2018-11-04T17:31:33.513Z,84.66
2018-11-04T17:34:04.368Z,84.40
2018-11-04T17:36:35.713Z,84.54
2018-11-04T17:39:09.205Z,84.55
2018-11-04T17:41:40.517Z,84.69
2018-11-04T17:44:11.714Z,84.63
2018-11-04T17:46:42.563Z,84.63
2018-11-04T17:49:13.688Z,84.79
2018-11-04T17:51:44.569Z,84.44
2018-11-04T17:54:15.710Z,84.83
2018-11-04T17:56:47.198Z,84.94
2018-11-04T17:59:18.829Z,84.90
2018-11-04T18:01:50.363Z,84.94
2018-11-04T18:04:21.178Z,85.08
2018-11-04T18:06:52.720Z,85.13
2018-11-04T18:09:24.091Z,85.18
2018-11-04T18:11:55.602Z,85.37
2018-11-04T18:14:26.546Z,85.34
2018-11-04T18:16:57.403Z,84.86
2018-11-04T18:19:28.260Z,85.13
2018-11-04T18:21:59.374Z,85.47
2018-11-04T18:24:30.469Z,85.95
2018-11-04T18:27:01.617Z,85.74
2018-11-04T18:29:32.443Z,85.84
2018-11-04T18:32:03.562Z,85.83
2018-11-04T18:34:34.438Z,85.81
2018-11-04T18:37:05.304Z,85.72
2018-11-04T18:39:36.156Z,85.61
2018-11-04T18:42:07.903Z,85.82
2018-11-04T18:44:39.236Z,86.09
2018-11-04T18:47:10.831Z,86.18
2018-11-04T18:49:42.494Z,86.03
2018-11-04T18:52:14.929Z,86.16
2018-11-04T18:54:45.722Z,86.31
2018-11-04T18:57:16.620Z,86.35
2018-11-04T18:59:47.858Z,86.42
2018-11-04T19:02:18.734Z,86.24
2018-11-04T19:04:49.960Z,86.22
2018-11-04T19:07:21.066Z,86.18
2018-11-04T19:09:52.528Z,86.18
2018-11-04T19:12:23.669Z,86.31
2018-11-04T19:14:54.819Z,86.49
2018-11-04T19:17:25.716Z,86.46
2018-11-04T19:19:56.568Z,86.36
2018-11-04T19:22:27.693Z,86.23
2018-11-04T19:24:59.242Z,86.21
2018-11-04T19:27:30.116Z,86.53
2018-11-04T19:30:00.989Z,86.28
2018-11-04T19:32:31.907Z,86.04
2018-11-04T19:35:02.824Z,86.42
2018-11-04T19:37:34.096Z,86.53
2018-11-04T19:40:05.181Z,86.72
2018-11-04T19:42:36.546Z,86.64
2018-11-04T19:45:07.859Z,86.54
2018-11-04T19:47:39.225Z,86.50
2018-11-04T19:50:12.410Z,86.08
2018-11-04T19:52:43.601Z,86.17
2018-11-04T19:55:14.743Z,86.52
2018-11-04T19:57:45.603Z,86.30
2018-11-04T20:00:16.809Z,86.16
2018-11-04T20:02:47.682Z,86.41
2018-11-04T20:05:18.604Z,86.51
2018-11-04T20:07:49.399Z,86.50
2018-11-04T20:10:21.043Z,86.51
2018-11-04T20:13:08.857Z,86.64
2018-11-04T20:15:39.702Z,86.25
2018-11-04T20:18:41.091Z,86.44
2018-11-04T20:21:11.951Z,86.76
2018-11-04T20:23:43.079Z,86.42
2018-11-04T20:26:15.631Z,86.38
2018-11-04T20:28:46.734Z,86.73
2018-11-04T20:31:35.400Z,87.02
2018-11-04T20:34:06.273Z,86.60
2018-11-04T20:36:37.499Z,86.54
2018-11-04T20:39:38.327Z,86.80
2018-11-04T20:42:09.592Z,86.83
2018-11-04T20:44:48.517Z,86.72
2018-11-04T20:47:19.356Z,86.70
2018-11-04T20:50:07.360Z,86.95
2018-11-04T20:52:38.251Z,86.98
2018-11-04T20:55:09.213Z,86.99
2018-11-04T20:57:42.369Z,87.09
2018-11-04T21:00:14.303Z,86.70
2018-11-04T21:02:45.184Z,86.99
2018-11-04T21:05:16.511Z,87.05
2018-11-04T21:07:47.408Z,86.91
2018-11-04T21:10:18.873Z,87.06
2018-11-04T21:12:49.964Z,87.38
2018-11-04T21:15:20.891Z,87.55
2018-11-04T21:17:51.731Z,87.32
2018-11-04T21:20:22.577Z,87.15
2018-11-04T21:22:53.869Z,87.11
2018-11-04T21:25:25.191Z,87.17
2018-11-04T21:27:55.966Z,87.07
2018-11-04T21:30:26.733Z,87.18
2018-11-04T21:32:57.601Z,87.03
2018-11-04T21:35:29.126Z,87.11
2018-11-04T21:38:00.020Z,87.55
2018-11-04T21:40:30.842Z,87.67
2018-11-04T21:43:02.089Z,87.51
2018-11-04T21:45:32.965Z,87.42
2018-11-04T21:48:03.841Z,87.43
2018-11-04T21:50:35.090Z,87.42
2018-11-04T21:53:06.277Z,87.62
2018-11-04T21:55:37.352Z,87.63
2018-11-04T21:58:15.703Z,87.81
2018-11-04T22:00:46.557Z,87.82
2018-11-04T22:03:17.811Z,87.73
2018-11-04T22:05:49.094Z,87.80
2018-11-04T22:08:20.225Z,87.92
2018-11-04T22:10:51.074Z,88.00
2018-11-04T22:13:21.940Z,87.93
2018-11-04T22:15:52.855Z,87.65
2018-11-04T22:18:23.919Z,87.77
2018-11-04T22:20:54.757Z,88.14
2018-11-04T22:23:25.636Z,88.09
2018-11-04T22:25:56.492Z,87.97
2018-11-04T22:28:27.781Z,87.99
2018-11-04T22:30:58.673Z,88.11
2018-11-04T22:33:29.605Z,87.94
2018-11-04T22:36:00.485Z,88.05
2018-11-04T22:38:42.339Z,88.00
2018-11-04T22:41:13.244Z,88.09
2018-11-04T22:43:44.235Z,88.16
2018-11-04T22:46:15.078Z,87.91
2018-11-04T22:48:46.307Z,87.89
2018-11-04T22:51:17.839Z,88.06
2018-11-04T22:53:48.965Z,87.86
2018-11-04T22:56:19.866Z,87.87
2018-11-04T22:58:50.721Z,88.00
2018-11-04T23:01:22.461Z,88.00
2018-11-04T23:03:53.622Z,87.84
2018-11-04T23:06:24.799Z,87.93
2018-11-04T23:08:55.985Z,87.86
2018-11-04T23:11:27.230Z,87.83
2018-11-04T23:13:58.118Z,88.18
2018-11-04T23:16:28.949Z,88.19
2018-11-04T23:19:00.179Z,88.02
2018-11-04T23:21:31.022Z,87.94
2018-11-04T23:24:01.881Z,87.87
2018-11-04T23:26:32.782Z,87.84
2018-11-04T23:29:03.863Z,88.15
2018-11-04T23:31:35.513Z,87.94
2018-11-04T23:34:06.363Z,87.84
2018-11-04T23:36:37.196Z,87.87
2018-11-04T23:39:09.964Z,87.88
2018-11-04T23:41:41.109Z,87.57
2018-11-04T23:44:11.988Z,87.64
2018-11-04T23:46:43.388Z,87.86
2018-11-04T23:49:14.555Z,87.62
2018-11-04T23:51:46.016Z,87.57
2018-11-04T23:54:16.966Z,87.62
2018-11-04T23:56:47.847Z,87.85
2018-11-04T23:59:19.450Z,87.78
